DRI-NNSC Building Weather observations

Data are for 10 minute period ending at time listed.
 Day   Time   Solar   Ave.   Ave.  Ave.  Vector  Max.   Baro.   Total    
  of    of     Rad.   Air    Rel.  Wind   Wind   Wind  Press.  Precip.   
Year   Day            Temp.  Hum.  Speed  Dir.   Gust                    
2016   (PST)  Kw/m2    F      %     mph   deg.    mph    mb.     in.     
-------------------------------------------------------------------------
 268   11:10   0.76   64.3     1    2.7   147      7   857.3    0.00 
 268   11:20   0.77   65.2     1    4.5   155      8   857.3    0.00 
 268   11:30   0.77   65.9     1    2.1   198      7   857.3    0.00 
 268   11:40   0.77   65.8     1    3.0    50      8   857.3    0.00 
 268   11:50   0.78   65.9     1    2.5   130      6   857.2    0.00 
 268   12:00   0.78   66.2     1    3.9   108      8   857.2    0.00 
 268   12:10   0.79   66.9     1    5.1   126      9   857.1    0.00 
 268   12:20   0.74   67.9     1    5.4   105     10   857.0    0.00 
 268   12:30   0.78   67.5     1    5.0   104     11   857.1    0.00 
 268   12:40   0.77   68.6     1    3.2   109      8   857.0    0.00 
 268   12:50   0.76   68.4     1    5.5    52     11   857.0    0.00 
 268   13:00   0.75   68.3     1    4.2    67     11   856.8    0.00 
 268   13:10   0.74   69.2     1    4.3    95      9   856.8    0.00 
 268   13:20   0.73   69.3     1    4.1   107      8   856.7    0.00 
 268   13:30   0.72   70.4     1    3.8    87     12   856.6    0.00 
 268   13:40   0.70   71.3     1    4.2   127      8   856.5    0.00 
 268   13:50   0.68   71.1     1    6.5    37     11   856.5    0.00 
 268   14:00   0.66   71.8     1    4.3    59     10   856.5    0.00 
 268   14:10   0.65   72.0     1    4.1    58     12   856.4    0.00 
 268   14:20   0.62   72.2     1    4.2    68     10   856.4    0.00 
 268   14:30   0.60   72.5     1    5.6    33     12   856.5    0.00 
 268   14:40   0.58   72.7     1    2.7    76      9   856.5    0.00 
 268   14:50   0.54   73.2     1    5.4    27     10   856.5    0.00 
 268   15:00   0.52   72.7     1    6.1    26     15   856.5    0.00 
 268   15:10   0.51   73.0     1    7.3    24     13   856.5    0.00 
 268   15:20   0.48   72.8     1    7.4    25     13   856.6    0.00 
 268   15:30   0.45   72.4     1    7.0    32     14   856.6    0.00 
 268   15:40   0.42   72.1     1    6.9    25     12   856.6    0.00 
 268   15:50   0.38   72.6     1    5.4    26     10   856.6    0.00 
 268   16:00   0.35   72.6     1    5.1    27     11   856.7    0.00 
 268   16:10   0.32   72.5     1    4.7    18     12   856.8    0.00 
 268   16:20   0.29   72.8     1    5.2    12     10   856.8    0.00 
 268   16:30   0.26   72.2     1    8.5    14     13   856.7    0.00 
 268   16:40   0.22   71.7     1    7.8    29     12   856.8    0.00 
 268   16:50   0.19   71.5     1    7.7    34     10   856.8    0.00 
 268   17:00   0.15   71.5     1    5.8    30      8   856.8    0.00 
 268   17:10   0.12   71.2     1    4.9    33     10   856.9    0.00 
 268   17:20   0.10   69.9     1    8.3    16     14   857.0    0.00 
 268   17:30   0.07   69.2     1    8.6    16     14   857.1    0.00 
 268   17:40   0.03   68.4     1    7.4    18     12   857.1    0.00 
 268   17:50   0.01   67.5     1    7.6    13     13   857.1    0.00 
 268   18:00   0.01   67.0     1    7.3    13     12   857.2    0.00 
 268   18:10   0.00   66.6     1    7.6    13     11   857.2    0.00 
 268   18:20   0.00   66.3     1    7.9     6     12   857.3    0.00 
 268   18:30   0.00   65.8     1    6.8     9     10   857.4    0.00 
 268   18:40   0.00   65.3     1    6.0    31     11   857.5    0.00 
 268   18:50   0.00   63.8     1    4.6    27      7   857.7    0.00 
 268   19:00   0.00   64.0     1    5.0   341      8   857.8    0.00 
 268   19:10   0.00   63.8     1    6.5   341      9   858.0    0.00 
 268   19:20   0.00   63.6     1    6.5   352     10   858.0    0.00 
 268   19:30   0.00   63.5     1    5.4   355      9   858.1    0.00 
 268   19:40   0.00   63.9     1    6.9   359     10   858.3    0.00 
 268   19:50   0.00   63.4     1    3.3     9      8   858.4    0.00 
 268   20:00   0.00   63.3     1    3.6     8      6   858.5    0.00 
 268   20:10   0.00   62.9     1    0.9    62      4   858.5    0.00 
 268   20:20   0.00   62.5     1    1.3    53      4   858.5    0.00 
 268   20:30   0.00   63.4     0    3.0    50      5   858.5    0.00 
 268   20:40   0.00   64.1     1    3.2    59      4   858.5    0.00 
 268   20:50   0.00   63.9     1    3.4    56      4   858.5    0.00 
 268   21:00   0.00   63.5     1    2.1    60      4   858.7    0.00 
 268   21:10   0.00   62.7     1    1.2    75      2   858.7    0.00 
 268   21:20   0.00   62.0     0    0.1   121      1   858.6    0.00 
 268   21:30   0.00   61.6     1    0.5   244      1   858.7    0.00 
 268   21:40   0.00   62.1     0    0.4   356      1   858.7    0.00 
 268   21:50   0.00   63.0     1    1.2    68      2   858.8    0.00 
 268   22:00   0.00   62.8     1    2.4    77      5   858.8    0.00 
 268   22:10   0.00   62.6     1    2.6    85      4   858.8    0.00 
 268   22:20   0.00   62.2     1    3.2    75      4   858.9    0.00 
 268   22:30   0.00   61.2     0    3.3    73      5   858.9    0.00 
 268   22:40   0.00   58.5     0    2.2    96      5   858.9    0.00 
 268   22:50   0.00   58.8     0    1.9    49      4   858.9    0.00 
 268   23:00   0.00   58.0     0    1.7   335      4   858.9    0.00 
 268   23:10   0.00   60.1     0    1.9    52      2   859.0    0.00 
 268   23:20   0.00   59.6     0    0.7    31      2   859.0    0.00 
 268   23:30   0.00   60.2     0    1.9    29      3   859.0    0.00 
 268   23:40   0.00   60.9     1    3.6    60      4   859.1    0.00 
 268   23:50   0.00   60.1     0    4.3    53      5   859.1    0.00 
 269    0:00   0.00   60.2     0    4.8    48      6   859.2    0.00 
 269    0:10   0.00   59.3     0    3.4    55      6   859.3    0.00 
 269    0:20   0.00   56.8     0    2.4   262      4   859.4    0.00 
 269    0:30   0.00   55.5     0    2.5   327      4   859.4    0.00 
 269    0:40   0.00   57.7     0    2.8   337      4   859.4    0.00 
 269    0:50   0.00   60.0     0    3.3    50      5   859.5    0.00 
 269    1:00   0.00   59.2     1    3.7    53      5   859.5    0.00 
 269    1:10   0.00   59.7     0    2.6    55      4   859.5    0.00 
 269    1:20   0.00   59.6     1    2.5    77      5   859.5    0.00 
 269    1:30   0.00   58.7     0    2.2   138      4   859.5    0.00 
 269    1:40   0.00   55.0     0    0.3   196      2   859.5    0.00 
 269    1:50   0.00   55.4     0    0.9   234      2   859.4    0.00 
 269    2:00   0.00   55.0     0    0.7   243      2   859.4    0.00 
 269    2:10   0.00   55.9     0    1.0   350      2   859.3    0.00 
 269    2:20   0.00   56.7     0    2.3   126      4   859.4    0.00 
 269    2:30   0.00   54.7     0    1.4   197      3   859.4    0.00 
 269    2:40   0.00   54.6     0    0.5    51      2   859.3    0.00 
 269    2:50   0.00   56.6     0    2.0    60      3   859.3    0.00 
 269    3:00   0.00   55.2     0    1.1    29      4   859.4    0.00 
 269    3:10   0.00   55.6     0    4.5    49      5   859.4    0.00 
 269    3:20   0.00   56.4     0    3.2    56      4   859.4    0.00 
 269    3:30   0.00   55.9     0    2.5    40      3   859.5    0.00 
 269    3:40   0.00   55.8     0    2.9    42      4   859.5    0.00 
 269    3:50   0.00   57.0     0    3.0    50      4   859.5    0.00 
 269    4:00   0.00   56.9     0    3.4    52      4   859.5    0.00 
 269    4:10   0.00   56.8     0    3.1    67      4   859.5    0.00 
 269    4:20   0.00   55.7     0    3.2    47      4   859.5    0.00 
 269    4:30   0.00   56.2     0    2.9    55      4   859.5    0.00 
 269    4:40   0.00   56.4     0    2.9    56      4   859.6    0.00 
 269    4:50   0.00   55.8     0    3.0    43      4   859.6    0.00 
 269    5:00   0.00   55.3     0    1.5    93      3   859.7    0.00 
 269    5:10   0.00   53.7     0    1.0    54      2   859.6    0.00 
 269    5:20   0.00   54.0     0    1.5   116      3   859.7    0.00 
 269    5:30   0.00   52.4     0    0.2   140      1   859.8    0.00 
 269    5:40   0.00   53.6     0    1.8    55      2   859.8    0.00 
 269    5:50   0.00   52.9     0    1.6    39      2   860.0    0.00 
 269    6:00   0.00   52.0     0    0.9   253      3   860.1    0.00 
 269    6:10   0.01   53.3     0    1.8    48      3   860.2    0.00 
 269    6:20   0.03   55.1     0    2.2    70      4   860.2    0.00 
 269    6:30   0.06   55.6     0    2.6    62      4   860.3    0.00 
 269    6:40   0.10   56.5     0    2.1    71      4   860.5    0.00 
 269    6:50   0.12   56.1     0    1.9    74      4   860.5    0.00 
 269    7:00   0.14   56.3     0    2.3    71      4   860.5    0.00 
 269    7:10   0.17   55.7     0    4.3    54      6   860.6    0.00 
 269    7:20   0.20   56.2     0    3.0    58      5   860.6    0.00 
 269    7:30   0.24   57.1     0    2.7    79      4   860.7    0.00 
 269    7:40   0.27   58.1     0    2.0    71      4   860.7    0.00 
 269    7:50   0.30   59.0     1    3.0    55      5   860.7    0.00 
 269    8:00   0.33   60.3     0    2.4    61      4   860.8    0.00 
 269    8:10   0.36   60.9     0    2.9    81      5   860.8    0.00 
 269    8:20   0.40   62.4     1    2.6    98      4   860.9    0.00 
 269    8:30   0.43   63.3     1    3.3   123      8   860.9    0.00 
 269    8:40   0.46   63.0     1    4.5   118      8   860.9    0.00 
 269    8:50   0.48   63.4     1    4.2   104      8   860.9    0.00 
 269    9:00   0.51   63.8     1    5.2   112      9   861.0    0.00 
 269    9:10   0.54   63.8     1    6.9   123     11   861.0    0.00 
 269    9:20   0.56   65.0     1    5.4   116      9   860.9    0.00 
 269    9:30   0.59   65.1     1    6.5   113     12   861.0    0.00 
 269    9:40   0.61   65.9     1    6.4   105     10   860.9    0.00 
 269    9:50   0.63   66.8     1    6.1    97     11   860.9    0.00 
 269   10:00   0.65   67.1     1    6.4   100     11   860.8    0.00 
 269   10:10   0.67   67.9     1    5.3   101     10   860.8    0.00 
 269   10:20   0.69   68.5     1    6.1   106     11   860.7    0.00 
 269   10:30   0.71   69.1     1    5.9   116     10   860.6    0.00 
 269   10:40   0.72   70.1     1    6.9   125     12   860.5    0.00 
 269   10:50   0.73   70.6     1    7.0   136     12   860.4    0.00 
 269   11:00   0.74   71.0     1    6.1   116     12   860.2    0.00 

Return to NNSC graphs page.


Western Regional Climate Center,wrcc@dri.edu